createdAt,value
2019-02-25T00:00:23.931Z,33.47
2019-02-25T00:02:52.731Z,34.17
2019-02-25T00:05:21.457Z,40.73
2019-02-25T00:07:50.151Z,31.10
2019-02-25T00:10:18.826Z,33.07
2019-02-25T00:12:47.472Z,33.43
2019-02-25T00:15:16.162Z,32.57
2019-02-25T00:17:46.610Z,34.77
2019-02-25T00:20:15.338Z,31.60
2019-02-25T00:22:44.037Z,34.90
2019-02-25T00:25:13.532Z,29.50
2019-02-25T00:27:42.160Z,35.83
2019-02-25T00:30:15.354Z,33.67
2019-02-25T00:32:44.111Z,33.30
2019-02-25T00:35:12.825Z,30.53
2019-02-25T00:37:41.474Z,26.70
2019-02-25T00:40:16.251Z,29.57
2019-02-25T00:42:44.916Z,29.37
2019-02-25T00:45:15.228Z,33.97
2019-02-25T00:47:43.957Z,30.00
2019-02-25T00:50:17.632Z,42.57
2019-02-25T00:52:46.319Z,34.80
2019-02-25T00:55:15.447Z,35.00
2019-02-25T00:57:44.134Z,35.07
2019-02-25T01:00:21.263Z,29.17
2019-02-25T01:02:50.083Z,33.17
2019-02-25T01:05:18.829Z,28.83
2019-02-25T01:07:47.541Z,28.03
2019-02-25T01:10:17.244Z,29.93
2019-02-25T01:12:54.867Z,27.73
2019-02-25T01:15:23.560Z,27.87
2019-02-25T01:17:55.192Z,30.70
2019-02-25T01:20:23.952Z,35.33
2019-02-25T01:22:52.598Z,33.30
2019-02-25T01:25:21.277Z,31.83
2019-02-25T01:27:50.044Z,28.23
2019-02-25T01:30:21.936Z,30.37
2019-02-25T01:32:50.506Z,30.27
2019-02-25T01:35:19.254Z,26.43
2019-02-25T01:37:47.913Z,27.13
2019-02-25T01:40:16.796Z,31.23
2019-02-25T01:42:45.530Z,29.67
2019-02-25T01:45:16.344Z,31.13
2019-02-25T01:47:45.038Z,27.93
2019-02-25T01:50:13.874Z,28.03
2019-02-25T01:52:42.618Z,26.13
2019-02-25T01:55:12.537Z,23.33
2019-02-25T01:57:41.221Z,22.20
2019-02-25T02:00:17.053Z,29.17
2019-02-25T02:02:45.777Z,26.73
2019-02-25T02:05:14.595Z,27.80
2019-02-25T02:07:43.292Z,27.00
2019-02-25T02:10:18.050Z,26.67
2019-02-25T02:12:46.598Z,23.87
2019-02-25T02:15:17.095Z,25.60
2019-02-25T02:17:45.810Z,26.30
2019-02-25T02:20:18.131Z,26.30
2019-02-25T02:22:46.846Z,27.10
2019-02-25T02:25:16.996Z,22.03
2019-02-25T02:27:48.314Z,23.00
2019-02-25T02:30:21.247Z,27.63
2019-02-25T02:32:49.891Z,21.60
2019-02-25T02:35:18.615Z,25.73
2019-02-25T02:37:47.372Z,26.53
2019-02-25T02:40:16.002Z,21.57
2019-02-25T02:42:57.130Z,25.00
2019-02-25T02:45:34.537Z,26.80
2019-02-25T02:48:23.984Z,21.73
2019-02-25T02:50:52.560Z,24.33
2019-02-25T02:53:21.287Z,20.87
2019-02-25T02:55:50.001Z,21.43
2019-02-25T02:58:18.588Z,24.13
2019-02-25T03:00:47.319Z,24.90
2019-02-25T03:03:16.012Z,23.97
2019-02-25T03:05:44.777Z,19.97
2019-02-25T03:08:13.341Z,23.77
2019-02-25T03:10:42.033Z,24.93
2019-02-25T03:13:10.601Z,19.90
2019-02-25T03:15:39.220Z,23.83
2019-02-25T03:18:07.930Z,23.53
2019-02-25T03:20:36.624Z,25.30
2019-02-25T03:23:05.291Z,23.97
2019-02-25T03:25:34.074Z,22.53
2019-02-25T03:28:02.701Z,22.67
2019-02-25T03:30:31.375Z,28.60
2019-02-25T03:32:59.924Z,21.67
2019-02-25T03:35:28.498Z,20.73
2019-02-25T03:37:57.161Z,23.90
2019-02-25T03:40:25.882Z,22.67
2019-02-25T03:42:54.489Z,25.53
2019-02-25T03:45:25.816Z,22.10
2019-02-25T03:47:54.390Z,26.87
2019-02-25T03:50:23.035Z,24.97
2019-02-25T03:52:51.793Z,24.30
2019-02-25T03:55:24.630Z,21.33
2019-02-25T03:57:53.458Z,23.77
2019-02-25T04:00:23.948Z,26.53
2019-02-25T04:02:52.752Z,27.03
2019-02-25T04:05:21.451Z,23.40
2019-02-25T04:07:50.107Z,25.07
2019-02-25T04:10:18.828Z,23.40
2019-02-25T04:12:47.529Z,21.00
2019-02-25T04:15:19.953Z,19.43
2019-02-25T04:17:48.669Z,18.83
2019-02-25T04:20:17.868Z,24.03
2019-02-25T04:22:46.558Z,23.37
2019-02-25T04:25:15.249Z,27.97
2019-02-25T04:27:43.945Z,21.70
2019-02-25T04:30:15.280Z,28.87
2019-02-25T04:32:45.672Z,25.80
2019-02-25T04:35:14.812Z,21.27
2019-02-25T04:37:43.532Z,27.77
2019-02-25T04:40:13.394Z,24.63
2019-02-25T04:42:42.139Z,29.60
2019-02-25T04:45:20.986Z,42.43
2019-02-25T04:47:49.669Z,50.17
2019-02-25T04:50:18.357Z,68.37
2019-02-25T04:52:46.923Z,44.97
2019-02-25T04:55:16.384Z,49.27
2019-02-25T04:57:45.048Z,47.43
2019-02-25T05:00:22.468Z,37.20
2019-02-25T05:02:51.165Z,38.67
2019-02-25T05:05:19.791Z,40.63
2019-02-25T05:07:50.330Z,35.70
2019-02-25T05:10:19.017Z,34.77
2019-02-25T05:12:55.086Z,33.97
2019-02-25T05:15:25.419Z,31.90
2019-02-25T05:18:13.362Z,33.33
2019-02-25T05:20:43.202Z,28.83
2019-02-25T05:23:11.743Z,30.93
2019-02-25T05:25:40.308Z,30.53
2019-02-25T05:28:08.987Z,31.03
2019-02-25T05:30:37.637Z,26.80
2019-02-25T05:33:06.257Z,28.40
2019-02-25T05:35:34.948Z,30.47
2019-02-25T05:38:03.572Z,29.00
2019-02-25T05:40:32.209Z,30.70
2019-02-25T05:43:00.867Z,35.13
2019-02-25T05:45:29.623Z,29.33
2019-02-25T05:47:58.252Z,36.00
2019-02-25T05:50:26.915Z,32.67
2019-02-25T05:52:55.550Z,34.47
2019-02-25T05:55:24.133Z,29.70
2019-02-25T05:57:52.829Z,31.93
2019-02-25T06:00:35.109Z,36.53
2019-02-25T06:03:03.942Z,32.30
2019-02-25T06:05:33.373Z,33.90
2019-02-25T06:08:02.023Z,32.80
2019-02-25T06:10:32.162Z,27.30
2019-02-25T06:13:00.811Z,33.20
2019-02-25T06:15:29.395Z,37.17
2019-02-25T06:17:57.945Z,47.13
2019-02-25T06:20:26.669Z,34.30
2019-02-25T06:22:55.329Z,34.43
2019-02-25T06:25:24.050Z,34.17
2019-02-25T06:27:52.635Z,36.00
2019-02-25T06:30:24.547Z,32.13
2019-02-25T06:32:54.825Z,30.73
2019-02-25T06:35:23.519Z,33.33
2019-02-25T06:37:52.211Z,33.47
2019-02-25T06:40:21.138Z,31.90
2019-02-25T06:42:49.787Z,33.67
2019-02-25T06:45:23.854Z,33.10
2019-02-25T06:47:52.499Z,44.07
2019-02-25T06:50:21.141Z,36.57
2019-02-25T06:52:49.889Z,35.80
2019-02-25T06:55:18.588Z,42.60
2019-02-25T06:57:49.027Z,41.53
2019-02-25T07:00:22.530Z,39.50
2019-02-25T07:02:51.254Z,44.40
2019-02-25T07:05:24.205Z,45.13
2019-02-25T07:07:57.387Z,39.20
2019-02-25T07:10:39.694Z,37.50
2019-02-25T07:13:15.532Z,37.83
2019-02-25T07:15:48.316Z,33.30
2019-02-25T07:18:30.847Z,34.60
2019-02-25T07:21:03.633Z,35.00
2019-02-25T07:23:51.694Z,32.37
2019-02-25T07:26:30.767Z,39.03
2019-02-25T07:29:17.531Z,41.30
2019-02-25T07:31:59.470Z,32.37
2019-02-25T07:34:45.805Z,40.77
2019-02-25T07:37:18.666Z,43.03
2019-02-25T07:39:51.825Z,46.17
2019-02-25T07:42:22.205Z,44.80
2019-02-25T07:45:10.427Z,48.50
2019-02-25T07:47:58.666Z,46.30
2019-02-25T07:50:47.147Z,40.97
2019-02-25T07:53:13.194Z,46.27
2019-02-25T07:55:43.559Z,48.20
2019-02-25T07:58:16.643Z,50.10
2019-02-25T08:00:46.977Z,49.97
2019-02-25T08:03:20.230Z,48.87
2019-02-25T08:05:56.392Z,50.30
2019-02-25T08:08:26.713Z,48.67
2019-02-25T08:11:01.202Z,48.30
2019-02-25T08:13:31.421Z,44.13
2019-02-25T08:16:12.191Z,50.40
2019-02-25T08:18:42.325Z,51.03
2019-02-25T08:21:18.647Z,48.13
2019-02-25T08:23:51.865Z,45.47
2019-02-25T08:26:24.811Z,47.97
2019-02-25T08:28:55.187Z,51.53
2019-02-25T08:31:34.328Z,52.57
2019-02-25T08:34:21.029Z,43.03
2019-02-25T08:37:22.918Z,48.90
2019-02-25T08:40:27.389Z,39.87
2019-02-25T08:43:02.297Z,49.00
2019-02-25T08:45:32.601Z,40.33
2019-02-25T08:48:14.955Z,49.60
2019-02-25T08:50:43.717Z,42.37
2019-02-25T08:53:12.351Z,48.27
2019-02-25T08:55:41.041Z,37.67
2019-02-25T08:58:09.813Z,35.67
2019-02-25T09:00:38.535Z,37.93
2019-02-25T09:03:07.255Z,37.27
2019-02-25T09:05:35.970Z,38.07
2019-02-25T09:08:04.974Z,37.53
2019-02-25T09:10:33.708Z,38.10
2019-02-25T09:13:02.437Z,39.10
2019-02-25T09:15:32.481Z,37.73
2019-02-25T09:18:00.130Z,43.87
2019-02-25T09:20:28.844Z,40.83
2019-02-25T09:22:57.479Z,39.43
2019-02-25T09:25:26.233Z,38.40
2019-02-25T09:27:57.418Z,40.77
2019-02-25T09:30:26.113Z,39.63
2019-02-25T09:32:54.835Z,42.47
2019-02-25T09:35:23.487Z,41.47
2019-02-25T09:37:52.222Z,40.07
2019-02-25T09:40:25.320Z,46.63
2019-02-25T09:42:54.129Z,36.17
2019-02-25T09:45:22.847Z,42.57
2019-02-25T09:47:51.607Z,39.43
2019-02-25T09:50:21.683Z,39.43
2019-02-25T09:52:50.355Z,38.47
2019-02-25T09:55:19.086Z,46.30
2019-02-25T09:57:47.783Z,43.07
2019-02-25T10:00:20.708Z,38.23
2019-02-25T10:02:49.432Z,47.30
2019-02-25T10:05:18.207Z,41.90
2019-02-25T10:07:46.751Z,42.47
2019-02-25T10:10:19.008Z,33.60
2019-02-25T10:12:47.774Z,41.67
2019-02-25T10:15:22.110Z,37.80
2019-02-25T10:17:50.827Z,41.00
2019-02-25T10:20:19.600Z,42.57
2019-02-25T10:22:49.219Z,35.23
2019-02-25T10:25:17.917Z,33.30
2019-02-25T10:27:49.428Z,35.37
2019-02-25T10:30:19.250Z,42.53
2019-02-25T10:32:47.947Z,33.07
2019-02-25T10:35:27.351Z,32.27
2019-02-25T10:37:56.074Z,36.40
2019-02-25T10:40:27.549Z,35.33
2019-02-25T10:42:56.382Z,34.47
2019-02-25T10:45:27.392Z,35.07
2019-02-25T10:47:58.589Z,29.53
2019-02-25T10:50:26.423Z,37.53
2019-02-25T10:53:03.263Z,35.93
2019-02-25T10:55:28.307Z,33.90
2019-02-25T10:57:57.660Z,35.77
2019-02-25T11:00:27.582Z,26.27
2019-02-25T11:02:58.142Z,29.77
2019-02-25T11:05:29.453Z,24.70
2019-02-25T11:07:57.143Z,28.97
2019-02-25T11:10:33.308Z,25.43
2019-02-25T11:13:02.598Z,29.73
2019-02-25T11:15:33.922Z,22.47
2019-02-25T11:18:02.637Z,21.53
2019-02-25T11:20:31.873Z,27.70
2019-02-25T11:23:01.672Z,24.47
2019-02-25T11:25:30.314Z,22.57
2019-02-25T11:27:58.977Z,22.10
2019-02-25T11:30:27.688Z,25.73
2019-02-25T11:32:59.525Z,23.27
2019-02-25T11:35:28.805Z,26.67
2019-02-25T11:37:59.808Z,21.57
2019-02-25T11:40:31.259Z,24.30
2019-02-25T11:42:59.572Z,22.70
2019-02-25T11:45:28.270Z,22.10
2019-02-25T11:47:56.979Z,27.90
2019-02-25T11:50:25.712Z,21.90
2019-02-25T11:52:54.284Z,25.90
2019-02-25T11:55:22.983Z,23.37
2019-02-25T11:57:51.702Z,23.00
2019-02-25T12:00:26.766Z,18.33
2019-02-25T12:02:55.468Z,24.20
2019-02-25T12:05:24.174Z,21.77
2019-02-25T12:07:52.923Z,21.07
2019-02-25T12:10:21.582Z,24.17
2019-02-25T12:12:50.273Z,25.97
2019-02-25T12:15:20.317Z,19.60
2019-02-25T12:17:49.046Z,19.50
2019-02-25T12:20:17.735Z,18.23
2019-02-25T12:22:46.446Z,21.30
2019-02-25T12:25:17.160Z,21.43
2019-02-25T12:27:45.862Z,27.43
2019-02-25T12:30:28.055Z,22.13
2019-02-25T12:32:56.764Z,24.10
2019-02-25T12:35:25.568Z,22.50
2019-02-25T12:37:54.263Z,19.37
2019-02-25T12:40:23.090Z,20.63
2019-02-25T12:42:51.789Z,20.60
2019-02-25T12:45:20.507Z,18.33
2019-02-25T12:47:49.216Z,19.80
2019-02-25T12:50:18.715Z,19.23
2019-02-25T12:52:50.113Z,18.43
2019-02-25T12:55:19.406Z,22.60
2019-02-25T12:57:51.122Z,17.67
2019-02-25T13:00:24.049Z,19.77
2019-02-25T13:02:52.675Z,22.10
2019-02-25T13:05:25.177Z,20.13
2019-02-25T13:07:53.873Z,17.77
2019-02-25T13:10:22.645Z,17.53
2019-02-25T13:12:51.777Z,19.57
2019-02-25T13:15:21.982Z,16.13
2019-02-25T13:17:50.722Z,15.17
2019-02-25T13:20:19.432Z,14.63
2019-02-25T13:22:48.043Z,14.97
2019-02-25T13:25:18.683Z,20.03
2019-02-25T13:27:47.395Z,16.27
2019-02-25T13:30:17.199Z,15.90
2019-02-25T13:32:45.862Z,13.83
2019-02-25T13:35:15.267Z,14.33
2019-02-25T13:37:44.062Z,13.10
2019-02-25T13:40:15.031Z,16.67
2019-02-25T13:42:43.777Z,13.50
2019-02-25T13:45:20.227Z,16.87
2019-02-25T13:47:48.993Z,11.83
2019-02-25T13:50:18.277Z,11.40
2019-02-25T13:52:48.836Z,13.70
2019-02-25T13:55:21.789Z,12.50
2019-02-25T13:57:50.501Z,13.43
2019-02-25T14:00:26.463Z,11.97
2019-02-25T14:02:59.141Z,14.97
2019-02-25T14:05:27.825Z,10.33
2019-02-25T14:07:56.510Z,13.87
2019-02-25T14:10:30.848Z,10.67
2019-02-25T14:13:02.850Z,11.03
2019-02-25T14:15:31.500Z,8.70
2019-02-25T14:18:00.384Z,14.13
2019-02-25T14:20:29.047Z,12.90
2019-02-25T14:23:00.185Z,10.83
2019-02-25T14:25:30.455Z,10.53
2019-02-25T14:27:59.331Z,8.17
2019-02-25T14:30:32.653Z,9.30
2019-02-25T14:32:58.919Z,10.03
2019-02-25T14:35:29.519Z,10.33
2019-02-25T14:38:05.050Z,10.40
2019-02-25T14:40:32.351Z,8.60
2019-02-25T14:43:03.271Z,8.77
2019-02-25T14:45:33.558Z,8.97
2019-02-25T14:48:03.177Z,11.07
2019-02-25T14:50:31.398Z,7.07
2019-02-25T14:53:06.560Z,10.10
2019-02-25T14:55:36.483Z,8.67
2019-02-25T14:58:07.278Z,10.07
2019-02-25T15:00:38.032Z,8.20
2019-02-25T15:03:07.502Z,7.87
2019-02-25T15:05:40.532Z,8.93
2019-02-25T15:08:10.154Z,8.77
2019-02-25T15:10:40.699Z,11.97
2019-02-25T15:13:15.462Z,10.67
2019-02-25T15:15:46.276Z,9.60
2019-02-25T15:18:16.129Z,14.17
2019-02-25T15:20:45.826Z,13.73
2019-02-25T15:23:16.604Z,10.97
2019-02-25T15:25:46.934Z,10.73
2019-02-25T15:28:16.052Z,13.93
2019-02-25T15:30:45.414Z,9.77
2019-02-25T15:33:14.074Z,13.70
2019-02-25T15:35:43.833Z,16.57
2019-02-25T15:38:12.601Z,13.47
2019-02-25T15:40:41.306Z,13.03
2019-02-25T15:43:17.723Z,12.47
2019-02-25T15:45:44.871Z,12.40
2019-02-25T15:48:24.695Z,15.40
2019-02-25T15:50:57.377Z,14.87
2019-02-25T15:53:25.349Z,16.50
2019-02-25T15:55:57.227Z,20.70
2019-02-25T15:58:25.150Z,16.30
2019-02-25T16:00:56.656Z,14.37
2019-02-25T16:03:28.547Z,15.40
2019-02-25T16:06:01.487Z,14.07
2019-02-25T16:08:28.811Z,17.57
2019-02-25T16:11:00.081Z,24.37
2019-02-25T16:13:28.542Z,17.63
2019-02-25T16:15:57.261Z,16.20
2019-02-25T16:18:27.849Z,15.93
2019-02-25T16:20:57.491Z,17.03
2019-02-25T16:23:27.831Z,15.20
2019-02-25T16:25:57.282Z,17.80
2019-02-25T16:28:26.012Z,17.57
2019-02-25T16:30:54.911Z,18.40
2019-02-25T16:33:24.143Z,20.50
2019-02-25T16:35:53.891Z,20.57
2019-02-25T16:38:25.262Z,23.43
2019-02-25T16:40:56.718Z,20.73
2019-02-25T16:43:24.994Z,19.67
2019-02-25T16:45:53.742Z,24.93
2019-02-25T16:48:24.201Z,24.30
2019-02-25T16:50:52.974Z,20.00
2019-02-25T16:53:21.816Z,18.77
2019-02-25T16:55:51.577Z,22.17
2019-02-25T16:58:20.215Z,24.67
2019-02-25T17:00:50.529Z,20.30
2019-02-25T17:03:19.581Z,19.30
2019-02-25T17:05:50.276Z,18.30
2019-02-25T17:08:19.827Z,23.50
2019-02-25T17:10:49.589Z,25.63
2019-02-25T17:13:18.829Z,25.07
2019-02-25T17:15:47.551Z,22.20
2019-02-25T17:18:16.573Z,19.10
2019-02-25T17:20:49.709Z,19.53
2019-02-25T17:23:15.966Z,20.43
2019-02-25T17:25:44.681Z,17.67
2019-02-25T17:28:16.240Z,28.33
2019-02-25T17:30:45.602Z,21.10
2019-02-25T17:33:14.838Z,20.00
2019-02-25T17:35:45.307Z,23.70
2019-02-25T17:38:14.114Z,25.70
2019-02-25T17:40:42.826Z,31.77
2019-02-25T17:43:13.987Z,27.93
2019-02-25T17:45:42.403Z,21.07
2019-02-25T17:48:13.453Z,25.57
2019-02-25T17:50:41.862Z,23.57
2019-02-25T17:53:10.976Z,22.43
2019-02-25T17:55:40.033Z,19.90
2019-02-25T17:58:08.924Z,20.03
2019-02-25T18:00:42.646Z,25.20
2019-02-25T18:03:11.573Z,17.93
2019-02-25T18:05:43.011Z,21.13
2019-02-25T18:08:13.299Z,21.37
2019-02-25T18:10:43.166Z,25.20
2019-02-25T18:13:12.765Z,25.93
2019-02-25T18:15:41.893Z,22.37
2019-02-25T18:18:12.475Z,23.80
2019-02-25T18:20:41.328Z,16.33
2019-02-25T18:23:10.417Z,21.60
2019-02-25T18:25:40.702Z,22.23
2019-02-25T18:28:10.847Z,22.37
2019-02-25T18:30:40.415Z,16.73
2019-02-25T18:33:10.207Z,18.00
2019-02-25T18:35:41.154Z,21.37
2019-02-25T18:38:09.703Z,17.60
2019-02-25T18:40:40.819Z,16.97
2019-02-25T18:43:09.006Z,18.63
2019-02-25T18:45:39.864Z,22.30
2019-02-25T18:48:08.194Z,19.97
2019-02-25T18:50:39.149Z,19.27
2019-02-25T18:53:07.480Z,16.87
2019-02-25T18:55:36.748Z,15.20
2019-02-25T18:58:09.662Z,18.50
2019-02-25T19:00:45.327Z,15.63
2019-02-25T19:03:15.026Z,19.00
2019-02-25T19:05:43.851Z,15.33
2019-02-25T19:08:31.811Z,10.57
2019-02-25T19:11:01.127Z,13.67
2019-02-25T19:13:30.380Z,18.60
2019-02-25T19:16:01.541Z,13.73
2019-02-25T19:18:32.243Z,14.90
2019-02-25T19:21:02.068Z,13.43
2019-02-25T19:23:35.406Z,15.93
2019-02-25T19:26:04.491Z,14.40
2019-02-25T19:28:33.249Z,15.70
2019-02-25T19:31:03.557Z,12.57
2019-02-25T19:33:36.247Z,16.20
2019-02-25T19:36:03.429Z,12.87
2019-02-25T19:38:36.023Z,18.67
2019-02-25T19:41:03.618Z,17.60
2019-02-25T19:43:32.338Z,18.67
2019-02-25T19:46:01.851Z,15.77
2019-02-25T19:48:33.490Z,17.20
2019-02-25T19:51:03.680Z,18.77
2019-02-25T19:53:36.581Z,20.37
2019-02-25T19:56:05.312Z,19.37
2019-02-25T19:58:35.884Z,18.73
2019-02-25T20:01:08.479Z,17.27
2019-02-25T20:03:37.165Z,20.20
2019-02-25T20:06:05.687Z,18.20
2019-02-25T20:08:34.424Z,18.43
2019-02-25T20:11:03.210Z,24.07
2019-02-25T20:13:32.752Z,19.80
2019-02-25T20:16:07.529Z,21.30
2019-02-25T20:18:33.818Z,21.80
2019-02-25T20:21:06.447Z,26.57
2019-02-25T20:23:56.000Z,19.77
2019-02-25T20:26:26.727Z,21.93
2019-02-25T20:28:55.072Z,25.10
2019-02-25T20:31:23.879Z,23.10
2019-02-25T20:33:53.050Z,24.07
2019-02-25T20:36:24.176Z,19.67
2019-02-25T20:38:53.361Z,20.60
2019-02-25T20:41:24.195Z,22.27
2019-02-25T20:43:58.869Z,21.53
2019-02-25T20:46:29.146Z,23.67
2019-02-25T20:49:00.893Z,20.07
2019-02-25T20:51:31.506Z,21.07
2019-02-25T20:54:01.445Z,17.20
2019-02-25T20:56:31.133Z,19.50
2019-02-25T20:59:05.454Z,16.43
2019-02-25T21:01:39.489Z,15.83
2019-02-25T21:04:08.807Z,15.67
2019-02-25T21:06:39.177Z,20.03
2019-02-25T21:09:08.940Z,20.67
2019-02-25T21:11:38.675Z,25.30
2019-02-25T21:14:07.351Z,16.73
2019-02-25T21:16:37.623Z,16.80
2019-02-25T21:19:08.124Z,14.67
2019-02-25T21:21:38.883Z,15.53
2019-02-25T21:24:08.925Z,17.23
2019-02-25T21:26:41.038Z,16.87
2019-02-25T21:29:09.839Z,17.00
2019-02-25T21:31:42.811Z,11.80
2019-02-25T21:34:09.511Z,18.37
2019-02-25T21:36:40.262Z,17.30
2019-02-25T21:39:10.381Z,14.40
2019-02-25T21:41:41.812Z,14.33
2019-02-25T21:44:14.336Z,16.73
2019-02-25T21:46:41.319Z,17.97
2019-02-25T21:49:10.043Z,21.97
2019-02-25T21:51:39.259Z,12.83
2019-02-25T21:54:08.987Z,17.27
2019-02-25T21:56:37.574Z,17.17
2019-02-25T21:59:08.274Z,18.97
2019-02-25T22:01:40.992Z,21.47
2019-02-25T22:04:13.154Z,19.73
2019-02-25T22:06:47.102Z,20.37
2019-02-25T22:09:19.019Z,22.20
2019-02-25T22:11:45.502Z,24.43
2019-02-25T22:14:16.318Z,26.00
2019-02-25T22:16:44.487Z,15.03
2019-02-25T22:19:14.171Z,23.73
2019-02-25T22:21:43.481Z,21.47
2019-02-25T22:24:12.135Z,26.23
2019-02-25T22:26:40.895Z,20.77
2019-02-25T22:29:09.477Z,17.10
2019-02-25T22:31:45.909Z,29.83
2019-02-25T22:34:15.982Z,22.67
2019-02-25T22:36:46.215Z,24.10
2019-02-25T22:39:15.720Z,19.00
2019-02-25T22:41:45.012Z,21.03
2019-02-25T22:44:14.693Z,20.97
2019-02-25T22:46:43.487Z,18.23
2019-02-25T22:49:12.004Z,24.17
2019-02-25T22:51:40.687Z,18.73
2019-02-25T22:54:10.243Z,20.93
2019-02-25T22:56:39.703Z,24.00
2019-02-25T22:59:08.372Z,21.50
2019-02-25T23:01:37.454Z,23.93
2019-02-25T23:04:11.097Z,19.90
2019-02-25T23:06:42.081Z,24.57
2019-02-25T23:09:12.263Z,26.23
2019-02-25T23:11:41.758Z,20.00
2019-02-25T23:14:11.482Z,19.20
2019-02-25T23:16:41.589Z,22.70
2019-02-25T23:19:12.008Z,18.60
2019-02-25T23:21:40.955Z,22.27
2019-02-25T23:24:09.637Z,15.43
2019-02-25T23:26:42.043Z,13.60
2019-02-25T23:29:10.631Z,18.83
2019-02-25T23:31:39.245Z,16.97
2019-02-25T23:34:10.132Z,16.23
2019-02-25T23:36:44.800Z,17.77
2019-02-25T23:39:17.111Z,15.40
2019-02-25T23:41:44.381Z,15.27
2019-02-25T23:44:15.057Z,14.63
2019-02-25T23:46:44.396Z,20.03
2019-02-25T23:49:13.031Z,16.40
2019-02-25T23:51:43.649Z,17.07
2019-02-25T23:54:15.975Z,16.63
2019-02-25T23:56:45.477Z,17.80
2019-02-25T23:59:14.819Z,17.23
